Time;durP1;ratioP1;P1;durP2;ratioP2;P2;SDS_P1;SDS_P2;PMS_P1;PMS_P2;Temp;Humidity;BMP_temperature;BMP_pressure;BME280_temperature;BME280_humidity;BME280_pressure;Samples;Min_cycle;Max_cycle;Signal;HPM_P1;HPM_P2
2023/09/25 00:00:49;;;;;;;5.70;1.73;;;14.80;99.90;;;;;;5054822;28;20104;-71
2023/09/25 00:03:15;;;;;;;5.07;1.90;;;14.80;99.90;;;;;;5054094;28;20029;-71
2023/09/25 00:05:41;;;;;;;3.92;1.48;;;14.80;99.90;;;;;;5054777;28;20017;-70
2023/09/25 00:08:07;;;;;;;4.97;1.98;;;14.70;99.90;;;;;;5052863;28;20060;-71
2023/09/25 00:10:33;;;;;;;3.25;1.60;;;14.70;99.90;;;;;;5054424;28;20067;-71
2023/09/25 00:13:00;;;;;;;2.58;1.50;;;14.70;99.90;;;;;;5053930;28;20028;-71
2023/09/25 00:15:26;;;;;;;4.20;1.65;;;14.70;99.90;;;;;;5053293;28;20021;-71
2023/09/25 00:17:53;;;;;;;5.13;1.52;;;14.70;99.90;;;;;;5053780;28;20086;-71
2023/09/25 00:20:24;;;;;;;3.15;1.40;;;14.70;99.90;;;;;;5054450;28;20035;-71
2023/09/25 00:22:50;;;;;;;;;;;14.70;99.90;;;;;;5054167;28;20029;-71
2023/09/25 00:25:18;;;;;;;4.97;1.73;;;14.60;99.90;;;;;;5053142;28;19984;-71
2023/09/25 00:27:44;;;;;;;4.70;1.83;;;14.60;99.90;;;;;;5053664;28;20031;-71
2023/09/25 00:30:10;;;;;;;3.00;1.70;;;14.60;99.90;;;;;;5054171;28;20112;-71
2023/09/25 00:32:36;;;;;;;2.90;1.63;;;14.50;99.90;;;;;;5053480;28;20025;-71
2023/09/25 00:35:10;;;;;;;3.78;1.50;;;14.60;99.90;;;;;;5054623;28;20021;-70
2023/09/25 00:37:36;;;;;;;2.97;1.60;;;14.60;99.90;;;;;;5053549;28;20028;-71
2023/09/25 00:40:13;;;;;;;2.88;1.63;;;14.60;99.90;;;;;;5054268;28;20255;-71
2023/09/25 00:42:45;;;;;;;4.38;1.80;;;14.50;99.90;;;;;;5053560;28;20025;-71
2023/09/25 00:45:11;;;;;;;4.28;1.42;;;14.50;99.90;;;;;;5052731;28;20025;-71
2023/09/25 00:47:41;;;;;;;5.53;1.70;;;14.50;99.90;;;;;;5053353;28;20024;-71
2023/09/25 00:50:08;;;;;;;4.07;1.60;;;14.50;99.90;;;;;;5053678;28;20041;-71
2023/09/25 00:52:35;;;;;;;4.97;1.75;;;14.50;99.90;;;;;;5053248;28;20013;-70
2023/09/25 00:55:03;;;;;;;3.83;1.63;;;14.50;99.90;;;;;;5053917;28;20098;-70
2023/09/25 00:57:29;;;;;;;3.55;1.67;;;14.50;99.90;;;;;;5053309;28;20048;-71
2023/09/25 00:59:55;;;;;;;2.92;1.55;;;14.40;99.90;;;;;;5053838;28;20442;-71
2023/09/25 01:02:22;;;;;;;2.45;1.42;;;14.50;99.90;;;;;;5053451;28;20534;-71
2023/09/25 01:04:48;;;;;;;3.90;1.42;;;14.40;99.90;;;;;;5053927;28;20033;-71
2023/09/25 01:07:17;;;;;;;3.85;1.60;;;14.40;99.90;;;;;;5051611;28;20036;-71
2023/09/25 01:09:42;;;;;;;3.50;1.67;;;14.40;99.90;;;;;;5053524;28;20033;-71
2023/09/25 01:12:08;;;;;;;3.58;1.55;;;14.40;99.90;;;;;;5052957;28;20501;-70
2023/09/25 01:14:34;;;;;;;2.75;1.50;;;14.40;99.90;;;;;;5053913;28;20044;-70
2023/09/25 01:16:59;;;;;;;2.60;1.45;;;14.40;99.90;;;;;;5052928;28;20028;-70
2023/09/25 01:19:25;;;;;;;4.57;1.75;;;14.30;99.90;;;;;;5052066;28;20021;-71
2023/09/25 01:21:51;;;;;;;4.43;1.80;;;14.30;99.90;;;;;;5052949;28;20471;-71
2023/09/25 01:24:17;;;;;;;3.45;1.60;;;14.30;99.90;;;;;;5053278;28;20017;-71
2023/09/25 01:26:43;;;;;;;3.78;1.60;;;14.30;99.90;;;;;;5052950;28;20368;-71
2023/09/25 01:29:08;;;;;;;3.30;1.52;;;14.30;99.90;;;;;;5053029;28;20541;-71
2023/09/25 01:31:34;;;;;;;3.30;1.55;;;14.30;99.90;;;;;;5052702;28;20119;-71
2023/09/25 01:33:59;;;;;;;3.67;1.60;;;14.30;99.90;;;;;;5052727;28;20017;-71
2023/09/25 01:36:25;;;;;;;2.35;1.33;;;14.30;99.90;;;;;;5052666;28;20024;-70
2023/09/25 01:38:51;;;;;;;2.85;1.63;;;14.30;99.90;;;;;;5052906;28;20017;-68
2023/09/25 01:41:16;;;;;;;4.05;1.50;;;14.30;99.90;;;;;;5051383;28;20017;-68
2023/09/25 01:43:43;;;;;;;5.28;1.90;;;14.30;99.90;;;;;;5052457;28;20387;-71
2023/09/25 01:46:09;;;;;;;2.95;1.60;;;14.30;99.90;;;;;;5053312;28;20017;-71
2023/09/25 01:48:35;;;;;;;6.13;2.00;;;14.30;99.90;;;;;;5051725;28;20064;-71
2023/09/25 01:51:10;;;;;;;3.83;2.05;;;14.20;99.90;;;;;;5052839;28;20138;-71
2023/09/25 01:53:36;;;;;;;2.85;1.67;;;14.20;99.90;;;;;;5052069;28;20025;-70
2023/09/25 01:56:15;;;;;;;3.97;1.90;;;14.20;99.90;;;;;;5051119;28;20020;-71
2023/09/25 01:58:42;;;;;;;6.65;2.03;;;14.20;99.90;;;;;;5052110;28;20017;-71
2023/09/25 02:01:08;;;;;;;3.50;1.67;;;14.20;99.90;;;;;;5051286;28;20051;-71
2023/09/25 02:03:34;;;;;;;4.22;1.58;;;14.20;99.90;;;;;;5051861;28;20540;-71
2023/09/25 02:06:00;;;;;;;3.42;1.85;;;14.20;99.90;;;;;;5052395;28;20075;-70
2023/09/25 02:08:25;;;;;;;5.55;1.80;;;14.20;99.90;;;;;;5050391;28;20098;-71
2023/09/25 02:10:51;;;;;;;3.03;1.63;;;14.20;99.90;;;;;;5052600;28;20052;-71
2023/09/25 02:13:17;;;;;;;3.90;1.77;;;14.20;99.90;;;;;;5052129;28;20028;-70
2023/09/25 02:15:42;;;;;;;4.70;1.58;;;14.20;99.90;;;;;;5052233;28;20017;-70
2023/09/25 02:18:10;;;;;;;4.38;1.83;;;14.20;99.90;;;;;;5051748;28;20029;-71
2023/09/25 02:20:36;;;;;;;3.50;1.33;;;14.20;99.90;;;;;;5051956;28;20100;-70
2023/09/25 02:23:02;;;;;;;3.28;1.55;;;14.20;99.90;;;;;;5051687;28;20539;-70
2023/09/25 02:25:28;;;;;;;7.60;1.90;;;14.10;99.90;;;;;;5052110;28;20037;-70
2023/09/25 02:27:54;;;;;;;4.28;1.67;;;14.10;99.90;;;;;;5051341;28;20017;-71
2023/09/25 02:30:20;;;;;;;4.40;1.92;;;14.10;99.90;;;;;;5051876;28;20032;-71
2023/09/25 02:32:46;;;;;;;2.90;1.60;;;14.10;99.90;;;;;;5051653;28;20014;-71
2023/09/25 02:35:12;;;;;;;2.83;1.63;;;14.10;99.90;;;;;;5050839;28;20021;-71
2023/09/25 02:37:38;;;;;;;4.30;1.60;;;14.10;99.90;;;;;;5051581;28;20031;-71
2023/09/25 02:40:05;;;;;;;3.35;1.88;;;14.10;99.90;;;;;;5051819;28;20546;-71
2023/09/25 02:42:31;;;;;;;3.38;1.70;;;14.10;99.90;;;;;;5049637;28;20025;-71
2023/09/25 02:44:57;;;;;;;3.13;1.63;;;14.10;99.90;;;;;;5051857;28;20156;-71
2023/09/25 02:47:22;;;;;;;5.78;2.00;;;14.00;99.90;;;;;;5051174;28;20036;-71
2023/09/25 02:49:48;;;;;;;4.68;1.80;;;14.00;99.90;;;;;;5051497;28;20049;-71
2023/09/25 02:52:14;;;;;;;4.03;1.70;;;14.00;99.90;;;;;;5051386;28;20024;-71
2023/09/25 02:54:39;;;;;;;2.90;1.75;;;14.00;99.90;;;;;;5051719;28;20032;-71
2023/09/25 02:57:05;;;;;;;4.75;1.75;;;14.00;99.90;;;;;;5051142;28;20025;-71
2023/09/25 02:59:31;;;;;;;6.63;2.10;;;13.90;99.90;;;;;;5052202;28;20037;-71
2023/09/25 03:01:56;;;;;;;5.47;2.08;;;14.00;99.90;;;;;;5051154;28;20028;-71
2023/09/25 03:04:22;;;;;;;3.88;1.67;;;13.90;99.90;;;;;;5050143;28;20119;-71
2023/09/25 03:06:48;;;;;;;4.43;1.90;;;14.00;99.90;;;;;;5051218;28;20070;-71
2023/09/25 03:09:13;;;;;;;3.58;1.95;;;13.90;99.90;;;;;;5051421;28;20111;-71
2023/09/25 03:11:39;;;;;;;2.90;1.58;;;13.90;99.90;;;;;;5051369;28;20021;-71
2023/09/25 03:14:04;;;;;;;3.17;1.60;;;13.90;99.90;;;;;;5051235;28;20033;-71
2023/09/25 03:16:30;;;;;;;3.80;1.70;;;13.90;99.90;;;;;;5051484;28;20017;-71
2023/09/25 03:18:56;;;;;;;2.67;1.50;;;13.90;99.90;;;;;;5050969;28;20044;-71
2023/09/25 03:21:22;;;;;;;4.13;1.50;;;13.90;99.90;;;;;;5051597;28;20025;-71
2023/09/25 03:23:48;;;;;;;4.93;1.80;;;13.90;99.90;;;;;;5049575;28;20491;-71
2023/09/25 03:26:15;;;;;;;2.53;1.77;;;13.90;99.90;;;;;;5050189;28;20107;-71
2023/09/25 03:28:41;;;;;;;4.80;2.00;;;13.90;99.90;;;;;;5050794;28;20253;-71
2023/09/25 03:31:07;;;;;;;4.78;1.58;;;13.80;99.90;;;;;;5052471;28;20021;-70
2023/09/25 03:33:33;;;;;;;4.55;2.17;;;13.80;99.90;;;;;;5054868;28;20382;-71
2023/09/25 03:35:58;;;;;;;4.22;1.77;;;13.80;99.90;;;;;;5055451;28;20025;-71
2023/09/25 03:38:24;;;;;;;4.30;1.80;;;13.80;99.90;;;;;;5054626;28;20017;-71
2023/09/25 03:40:50;;;;;;;3.50;1.88;;;13.80;99.90;;;;;;5055279;28;20094;-71
2023/09/25 03:43:15;;;;;;;3.97;1.70;;;13.80;99.90;;;;;;5054460;28;20251;-71
2023/09/25 03:45:41;;;;;;;4.65;1.80;;;13.80;99.90;;;;;;5055323;28;20059;-71
2023/09/25 03:48:08;;;;;;;4.53;1.88;;;13.80;99.90;;;;;;5054141;28;20447;-71
2023/09/25 03:50:33;;;;;;;4.05;1.70;;;13.80;99.90;;;;;;5054939;28;20032;-71
2023/09/25 03:53:02;;;;;;;4.25;1.90;;;13.80;99.90;;;;;;5054425;28;20111;-71
2023/09/25 03:55:28;;;;;;;2.75;1.75;;;13.80;99.90;;;;;;5054948;28;20082;-71
2023/09/25 03:57:54;;;;;;;4.75;1.83;;;13.70;99.90;;;;;;5052916;28;20437;-71
2023/09/25 04:00:20;;;;;;;5.57;2.28;;;13.80;99.90;;;;;;5054864;28;20025;-71
2023/09/25 04:02:46;;;;;;;5.88;2.00;;;13.80;99.90;;;;;;5052936;28;20112;-70
2023/09/25 04:05:14;;;;;;;4.30;2.05;;;13.80;99.90;;;;;;5054964;28;20102;-71
2023/09/25 04:07:40;;;;;;;2.63;1.50;;;13.80;99.90;;;;;;5054166;28;20052;-70
2023/09/25 04:10:07;;;;;;;4.05;2.10;;;13.80;99.90;;;;;;5054596;28;20063;-71
2023/09/25 04:12:36;;;;;;;4.60;2.05;;;13.80;99.90;;;;;;5052738;28;20021;-71
2023/09/25 04:15:22;;;;;;;4.38;1.77;;;13.70;99.90;;;;;;5053546;28;20040;-71
2023/09/25 04:17:50;;;;;;;3.92;1.92;;;13.80;99.90;;;;;;5053937;28;20025;-68
2023/09/25 04:20:24;;;;;;;3.45;1.90;;;13.80;99.90;;;;;;5054456;28;20033;-71
2023/09/25 04:22:51;;;;;;;2.97;1.85;;;13.70;99.90;;;;;;5053849;28;20025;-71
2023/09/25 04:25:21;;;;;;;5.95;2.05;;;13.70;99.90;;;;;;5054472;28;20021;-71
2023/09/25 04:27:52;;;;;;;4.50;1.92;;;13.70;99.90;;;;;;5052333;28;20021;-71
2023/09/25 04:30:19;;;;;;;4.90;2.47;;;13.70;99.90;;;;;;5054300;28;20029;-71
2023/09/25 04:32:46;;;;;;;4.47;1.60;;;13.70;99.90;;;;;;5053718;28;20108;-71
2023/09/25 04:35:15;;;;;;;2.88;1.77;;;13.70;99.90;;;;;;5054224;28;20074;-71
2023/09/25 04:37:42;;;;;;;3.60;1.70;;;13.70;99.90;;;;;;5053460;28;20134;-71
2023/09/25 04:40:14;;;;;;;4.28;1.92;;;13.70;99.90;;;;;;5054100;28;20068;-71
2023/09/25 04:42:41;;;;;;;3.72;1.95;;;13.70;99.90;;;;;;5053286;28;20033;-71
2023/09/25 04:45:12;;;;;;;4.03;2.00;;;13.60;99.90;;;;;;5054230;28;20094;-70
2023/09/25 04:47:41;;;;;;;4.88;1.98;;;13.60;99.90;;;;;;5053465;28;20029;-71
2023/09/25 04:50:10;;;;;;;4.10;1.70;;;13.70;99.90;;;;;;5053565;28;20090;-71
2023/09/25 04:52:40;;;;;;;3.08;1.75;;;13.60;99.90;;;;;;5051961;28;20029;-71
2023/09/25 04:55:07;;;;;;;4.15;2.08;;;13.60;99.90;;;;;;5053815;28;20523;-71
2023/09/25 04:57:33;;;;;;;3.40;1.63;;;13.60;99.90;;;;;;5053248;28;20029;-71
2023/09/25 05:00:21;;;;;;;3.88;1.70;;;13.60;99.90;;;;;;5053806;28;20032;-71
2023/09/25 05:02:47;;;;;;;5.25;1.70;;;13.60;99.90;;;;;;5052913;28;20037;-71
2023/09/25 05:05:16;;;;;;;3.85;1.77;;;13.60;99.90;;;;;;5054062;28;20047;-71
2023/09/25 05:07:43;;;;;;;6.80;1.85;;;13.60;99.90;;;;;;5053231;28;20156;-71
2023/09/25 05:10:14;;;;;;;4.10;1.55;;;13.60;99.90;;;;;;5052261;28;20029;-71
2023/09/25 05:12:40;;;;;;;2.90;1.67;;;13.60;99.90;;;;;;5053124;28;20412;-71
2023/09/25 05:15:07;;;;;;;3.72;1.50;;;13.60;99.90;;;;;;5053513;28;20095;-71
2023/09/25 05:17:37;;;;;;;3.83;1.50;;;13.50;99.90;;;;;;5051567;28;20028;-71
2023/09/25 05:20:15;;;;;;;2.95;1.67;;;13.60;99.90;;;;;;5053358;28;20044;-71
2023/09/25 05:22:59;;;;;;;4.45;1.83;;;13.60;99.90;;;;;;5052738;28;20021;-70
2023/09/25 05:25:26;;;;;;;4.13;1.60;;;13.60;99.90;;;;;;5053486;28;20036;-71
2023/09/25 05:27:55;;;;;;;3.78;1.98;;;13.60;99.90;;;;;;5052600;28;20070;-71
2023/09/25 05:30:21;;;;;;;6.03;2.05;;;13.60;99.90;;;;;;5053243;28;20057;-71
2023/09/25 05:32:48;;;;;;;3.35;1.83;;;13.60;99.90;;;;;;5052380;28;20056;-71
2023/09/25 05:35:15;;;;;;;2.95;1.38;;;13.60;99.90;;;;;;5053154;28;20475;-71
2023/09/25 05:37:43;;;;;;;3.42;1.55;;;13.60;99.90;;;;;;5052594;28;20017;-71
2023/09/25 05:40:12;;;;;;;3.30;1.60;;;13.50;99.90;;;;;;5053035;28;20025;-71
2023/09/25 05:42:42;;;;;;;4.50;1.63;;;13.50;99.90;;;;;;5052243;28;20559;-71
2023/09/25 05:45:09;;;;;;;3.72;1.63;;;13.60;99.90;;;;;;5053180;28;20449;-71
2023/09/25 05:47:35;;;;;;;5.13;2.10;;;13.50;99.90;;;;;;5052221;28;20502;-70
2023/09/25 05:50:02;;;;;;;3.40;1.65;;;13.50;99.90;;;;;;5052563;28;20033;-71
2023/09/25 05:52:28;;;;;;;3.88;1.70;;;13.50;99.90;;;;;;5052269;28;20029;-71
2023/09/25 05:54:54;;;;;;;3.30;1.65;;;13.50;99.90;;;;;;5051801;28;20036;-71
2023/09/25 05:57:20;;;;;;;2.75;1.50;;;13.50;99.90;;;;;;5052093;28;20436;-71
2023/09/25 05:59:46;;;;;;;5.70;1.80;;;13.50;99.90;;;;;;5052687;28;20116;-71
2023/09/25 06:02:11;;;;;;;3.45;1.40;;;13.50;99.90;;;;;;5051043;28;20032;-71
2023/09/25 06:04:37;;;;;;;3.40;1.83;;;13.50;99.90;;;;;;5052151;28;20100;-70
2023/09/25 06:07:04;;;;;;;4.18;1.92;;;13.50;99.90;;;;;;5051414;28;20509;-71
2023/09/25 06:09:31;;;;;;;4.10;1.80;;;13.60;99.90;;;;;;5051817;28;20025;-71
2023/09/25 06:11:57;;;;;;;4.53;1.80;;;13.60;99.90;;;;;;5052535;28;20028;-70
2023/09/25 06:14:23;;;;;;;3.92;1.75;;;13.60;99.90;;;;;;5050473;28;20024;-71
2023/09/25 06:16:50;;;;;;;3.67;1.67;;;13.60;99.90;;;;;;5052419;28;20098;-70
2023/09/25 06:19:18;;;;;;;3.90;1.70;;;13.60;99.90;;;;;;5051775;28;20044;-70
2023/09/25 06:21:44;;;;;;;4.25;1.80;;;13.60;99.90;;;;;;5051114;28;20060;-71
2023/09/25 06:24:12;;;;;;;3.35;1.60;;;13.70;99.90;;;;;;5051632;28;20130;-70
2023/09/25 06:26:39;;;;;;;4.57;1.65;;;13.70;99.90;;;;;;5052134;28;20033;-70
2023/09/25 06:29:06;;;;;;;4.50;2.08;;;13.70;99.90;;;;;;5051509;28;20017;-71
2023/09/25 06:31:31;;;;;;;3.17;1.60;;;13.70;99.90;;;;;;5052057;28;20483;-71
2023/09/25 06:33:57;;;;;;;3.42;1.75;;;13.70;99.90;;;;;;5049846;28;20029;-71
2023/09/25 06:36:23;;;;;;;3.80;1.90;;;13.80;99.90;;;;;;5050806;28;20462;-71
2023/09/25 06:38:49;;;;;;;3.38;1.67;;;13.80;99.90;;;;;;5051436;28;20092;-71
2023/09/25 06:41:15;;;;;;;3.55;2.00;;;13.80;99.90;;;;;;5051934;28;20020;-71
2023/09/25 06:43:40;;;;;;;4.45;1.98;;;13.80;99.90;;;;;;5051256;28;20017;-71
2023/09/25 06:46:06;;;;;;;3.85;2.00;;;13.90;99.90;;;;;;5051900;28;20071;-71
2023/09/25 06:48:32;;;;;;;3.70;1.70;;;13.90;99.90;;;;;;5050837;28;20040;-71
2023/09/25 06:50:58;;;;;;;4.32;1.75;;;13.90;99.90;;;;;;5050640;28;20190;-71
2023/09/25 06:53:23;;;;;;;4.65;1.90;;;13.90;99.90;;;;;;5049860;28;20025;-71
2023/09/25 06:55:49;;;;;;;5.55;2.72;;;14.00;99.90;;;;;;5051688;28;20032;-71
2023/09/25 06:58:15;;;;;;;3.45;1.88;;;14.00;99.90;;;;;;5051447;28;20021;-71
2023/09/25 07:00:43;;;;;;;4.47;2.10;;;14.00;99.90;;;;;;5051862;28;20075;-71
2023/09/25 07:03:09;;;;;;;5.43;1.75;;;14.10;99.90;;;;;;5049960;28;20491;-71
2023/09/25 07:05:35;;;;;;;5.57;1.90;;;14.20;99.90;;;;;;5053327;28;20031;-71
2023/09/25 07:08:01;;;;;;;3.95;2.08;;;14.20;99.90;;;;;;5054851;28;20048;-70
2023/09/25 07:10:26;;;;;;;3.92;1.92;;;14.30;99.90;;;;;;5054376;28;20112;-70
2023/09/25 07:12:52;;;;;;;3.88;1.75;;;14.40;99.90;;;;;;5055453;28;20169;-71
2023/09/25 07:15:19;;;;;;;3.63;1.40;;;14.50;99.90;;;;;;5054474;28;20021;-71
2023/09/25 07:17:47;;;;;;;5.53;2.10;;;14.50;99.90;;;;;;5053996;28;20017;-71
2023/09/25 07:20:12;;;;;;;3.33;1.73;;;14.60;99.90;;;;;;5055408;28;20024;-71
2023/09/25 07:22:38;;;;;;;4.75;2.00;;;14.60;99.90;;;;;;5055202;28;20033;-71
2023/09/25 07:25:05;;;;;;;4.20;1.75;;;14.70;99.90;;;;;;5055289;28;20029;-71
2023/09/25 07:27:32;;;;;;;5.38;2.10;;;14.70;99.90;;;;;;5055183;28;20498;-71
2023/09/25 07:29:59;;;;;;;4.10;2.17;;;14.80;99.90;;;;;;5055088;28;20127;-71
2023/09/25 07:32:24;;;;;;;3.35;1.80;;;14.80;99.90;;;;;;5055336;28;20028;-71
2023/09/25 07:34:52;;;;;;;3.13;1.85;;;14.80;99.90;;;;;;5054993;28;20020;-71
2023/09/25 07:37:17;;;;;;;2.97;1.77;;;14.90;99.90;;;;;;5055420;28;20025;-71
2023/09/25 07:39:44;;;;;;;3.03;1.67;;;14.90;99.90;;;;;;5054534;28;20372;-71
2023/09/25 07:42:10;;;;;;;3.05;1.70;;;15.00;99.90;;;;;;5055232;28;20021;-71
2023/09/25 07:44:36;;;;;;;4.13;1.70;;;15.00;99.90;;;;;;5054414;28;20036;-71
2023/09/25 07:47:07;;;;;;;4.13;1.52;;;15.10;99.90;;;;;;5053841;28;20495;-71
2023/09/25 07:49:44;;;;;;;2.80;1.50;;;15.20;99.90;;;;;;5054206;28;20045;-71
2023/09/25 07:52:16;;;;;;;3.33;1.80;;;15.30;99.90;;;;;;5055040;28;20021;-71
2023/09/25 07:54:46;;;;;;;2.58;1.55;;;15.30;99.90;;;;;;5053013;28;20021;-71
2023/09/25 07:57:15;;;;;;;5.15;1.95;;;15.50;99.90;;;;;;5054951;28;20018;-71
2023/09/25 07:59:42;;;;;;;6.45;1.80;;;15.50;99.90;;;;;;5054323;28;20028;-71
2023/09/25 08:02:07;;;;;;;2.38;1.50;;;15.60;99.90;;;;;;5054839;28;20049;-71
2023/09/25 08:04:37;;;;;;;8.02;1.80;;;15.70;99.90;;;;;;5052819;28;20058;-71
2023/09/25 08:07:03;;;;;;;3.47;1.60;;;15.80;99.90;;;;;;5054952;28;20102;-71
2023/09/25 08:09:29;;;;;;;3.50;1.77;;;15.90;99.90;;;;;;5053941;28;20083;-71
2023/09/25 08:11:54;;;;;;;3.63;1.67;;;16.00;99.90;;;;;;5054591;28;20017;-71
2023/09/25 08:14:20;;;;;;;2.83;1.55;;;16.10;99.90;;;;;;5052697;28;20017;-71
2023/09/25 08:16:46;;;;;;;6.88;1.90;;;16.20;99.90;;;;;;5052431;28;20120;-71
2023/09/25 08:19:12;;;;;;;4.68;1.60;;;16.20;99.90;;;;;;5053897;28;20033;-71
2023/09/25 08:21:38;;;;;;;2.75;1.50;;;16.30;99.90;;;;;;5054512;28;20029;-71
2023/09/25 08:24:04;;;;;;;3.15;1.60;;;16.40;99.90;;;;;;5054023;28;20395;-71
2023/09/25 08:26:29;;;;;;;3.70;1.80;;;16.50;99.90;;;;;;5054536;28;20055;-71
2023/09/25 08:28:57;;;;;;;4.03;1.65;;;16.60;99.90;;;;;;5053749;28;20387;-71
2023/09/25 08:31:23;;;;;;;4.15;1.70;;;16.60;99.90;;;;;;5054700;28;20021;-71
2023/09/25 08:33:49;;;;;;;3.65;1.52;;;16.70;99.90;;;;;;5052445;28;20025;-71
2023/09/25 08:36:15;;;;;;;3.00;1.60;;;16.70;99.90;;;;;;5053058;28;20075;-71
2023/09/25 08:38:40;;;;;;;3.58;1.52;;;16.80;99.90;;;;;;5053625;28;20021;-72
2023/09/25 08:41:06;;;;;;;2.17;1.25;;;16.90;99.90;;;;;;5054272;28;20059;-71
2023/09/25 08:43:33;;;;;;;4.78;1.95;;;16.90;99.90;;;;;;5053747;28;20095;-71
2023/09/25 08:46:00;;;;;;;4.72;1.95;;;17.00;99.90;;;;;;5054113;28;20025;-71
2023/09/25 08:48:25;;;;;;;3.13;1.58;;;17.10;99.90;;;;;;5053201;28;20076;-71
2023/09/25 08:50:51;;;;;;;5.05;1.70;;;17.10;99.70;;;;;;5053855;28;20063;-71
2023/09/25 08:53:17;;;;;;;4.95;1.73;;;17.20;99.70;;;;;;5052160;28;20089;-71
2023/09/25 08:55:43;;;;;;;2.33;1.45;;;17.20;99.70;;;;;;5052521;28;20021;-71
2023/09/25 08:58:10;;;;;;;3.83;1.58;;;17.30;99.60;;;;;;5053478;28;20032;-71
2023/09/25 09:00:37;;;;;;;3.85;1.60;;;17.30;99.30;;;;;;5053725;28;20029;-71
2023/09/25 09:03:04;;;;;;;4.60;2.00;;;17.40;99.20;;;;;;5053224;28;20484;-71
2023/09/25 09:05:29;;;;;;;6.25;1.70;;;17.50;99.60;;;;;;5053436;28;20039;-71
2023/09/25 09:08:05;;;;;;;4.97;1.80;;;17.50;99.30;;;;;;5053380;28;20480;-71
2023/09/25 09:10:36;;;;;;;3.28;1.52;;;17.60;99.20;;;;;;5053290;28;20036;-71
2023/09/25 09:13:07;;;;;;;;;;;17.60;99.30;;;;;;5053648;28;20382;-71
2023/09/25 09:15:34;;;;;;;3.40;1.73;;;17.70;98.60;;;;;;5053416;28;19927;-71
2023/09/25 09:18:25;;;;;;;2.50;1.55;;;17.70;98.30;;;;;;5052962;28;20104;-71
2023/09/25 09:20:51;;;;;;;3.38;1.60;;;17.70;98.30;;;;;;5053344;28;20025;-71
2023/09/25 09:23:17;;;;;;;4.68;2.00;;;17.80;98.40;;;;;;5052849;28;20025;-71
2023/09/25 09:25:47;;;;;;;5.30;1.60;;;17.90;98.70;;;;;;5053265;28;20074;-71
2023/09/25 09:28:13;;;;;;;2.58;1.60;;;18.00;99.10;;;;;;5052305;28;20025;-71
2023/09/25 09:30:40;;;;;;;4.75;1.60;;;18.00;98.40;;;;;;5051070;28;20021;-68
2023/09/25 09:33:10;;;;;;;3.08;1.50;;;18.10;98.60;;;;;;5052884;28;20049;-71
2023/09/25 09:35:36;;;;;;;7.57;1.85;;;18.20;98.50;;;;;;5052884;28;20044;-71
2023/09/25 09:38:02;;;;;;;4.80;1.73;;;18.30;98.60;;;;;;5052676;28;20044;-71
2023/09/25 09:40:28;;;;;;;2.80;1.52;;;18.30;98.30;;;;;;5052858;28;20112;-71
2023/09/25 09:42:54;;;;;;;3.53;1.75;;;18.40;98.60;;;;;;5052579;28;20017;-71
2023/09/25 09:45:23;;;;;;;3.75;1.50;;;18.50;98.40;;;;;;5051306;28;20021;-71
2023/09/25 09:47:51;;;;;;;4.97;1.67;;;18.50;97.90;;;;;;5052916;28;20483;-71
2023/09/25 09:50:26;;;;;;;4.07;1.60;;;18.60;98.20;;;;;;5052288;28;20044;-71
2023/09/25 09:52:52;;;;;;;3.55;1.65;;;18.70;97.80;;;;;;5052759;28;20044;-71
2023/09/25 09:55:21;;;;;;;3.45;1.52;;;18.80;97.70;;;;;;5052219;28;20505;-72
2023/09/25 09:57:48;;;;;;;5.15;2.05;;;18.90;97.50;;;;;;5052685;28;20553;-71
2023/09/25 10:00:14;;;;;;;4.15;2.00;;;18.90;97.50;;;;;;5052079;28;20055;-71
2023/09/25 10:02:41;;;;;;;4.40;2.08;;;19.00;97.30;;;;;;5052621;28;20017;-71
2023/09/25 10:05:10;;;;;;;4.00;1.83;;;19.10;97.30;;;;;;5051901;28;20033;-71
2023/09/25 10:08:06;;;;;;;6.72;1.75;;;19.10;97.60;;;;;;5052387;28;20440;-71
2023/09/25 10:10:33;;;;;;;3.00;1.45;;;19.20;97.60;;;;;;5052454;28;20013;-71
2023/09/25 10:12:59;;;;;;;2.75;1.50;;;19.20;97.80;;;;;;5051042;28;20067;-69
2023/09/25 10:15:26;;;;;;;2.88;1.67;;;19.30;96.50;;;;;;5051898;28;20044;-68
2023/09/25 10:17:53;;;;;;;3.80;1.85;;;19.30;96.90;;;;;;5052370;28;20025;-68
2023/09/25 10:20:31;;;;;;;3.88;1.60;;;19.40;96.90;;;;;;5051643;28;20025;-69
2023/09/25 10:23:05;;;;;;;3.35;1.88;;;19.40;97.00;;;;;;5052573;28;20085;-69
2023/09/25 10:25:44;;;;;;;4.28;1.95;;;19.50;96.60;;;;;;5052118;28;20033;-69
2023/09/25 10:28:24;;;;;;;4.45;2.20;;;19.50;97.00;;;;;;5050794;28;20021;-69
2023/09/25 10:30:51;;;;;;;5.32;2.45;;;19.50;96.50;;;;;;5050507;28;20060;-68
2023/09/25 10:33:18;;;;;;;4.53;2.28;;;19.50;96.90;;;;;;5051525;28;20491;-69
2023/09/25 10:35:48;;;;;;;4.22;2.00;;;19.60;97.00;;;;;;5050562;28;20493;-69
2023/09/25 10:38:28;;;;;;;3.65;1.95;;;19.70;96.60;;;;;;5051498;28;20495;-69
2023/09/25 10:40:55;;;;;;;4.10;2.40;;;19.80;96.70;;;;;;5051490;28;20516;-69
2023/09/25 10:43:24;;;;;;;2.67;1.95;;;19.80;97.00;;;;;;5051443;28;20024;-69
2023/09/25 10:45:53;;;;;;;4.40;2.15;;;20.00;97.20;;;;;;5051604;28;20505;-69
2023/09/25 10:48:19;;;;;;;4.38;1.98;;;20.00;96.90;;;;;;5051383;28;20442;-69
2023/09/25 10:50:49;;;;;;;5.63;2.42;;;20.00;96.70;;;;;;5050557;28;20068;-69
2023/09/25 10:53:14;;;;;;;4.00;2.38;;;20.10;96.30;;;;;;5051470;28;20025;-69
2023/09/25 10:55:41;;;;;;;4.72;2.17;;;20.10;96.40;;;;;;5050288;28;20537;-68
2023/09/25 10:58:09;;;;;;;5.28;2.47;;;20.20;96.60;;;;;;5051576;28;20393;-69
2023/09/25 11:00:37;;;;;;;5.28;1.90;;;20.20;95.80;;;;;;5051356;28;20029;-69
2023/09/25 11:03:04;;;;;;;5.93;2.50;;;20.20;96.20;;;;;;5051703;28;20506;-69
2023/09/25 11:05:32;;;;;;;3.17;1.90;;;20.30;96.40;;;;;;5051540;28;20129;-69
2023/09/25 11:07:59;;;;;;;4.85;2.55;;;20.30;96.30;;;;;;5050447;28;20102;-69
2023/09/25 11:10:33;;;;;;;4.65;2.55;;;20.40;96.30;;;;;;5050992;28;20025;-69
2023/09/25 11:13:00;;;;;;;4.50;2.42;;;20.40;96.20;;;;;;5051557;28;20021;-67
2023/09/25 11:15:34;;;;;;;4.38;2.10;;;20.40;95.70;;;;;;5051197;28;20104;-68
2023/09/25 11:18:00;;;;;;;3.85;2.10;;;20.50;95.70;;;;;;5051635;28;20407;-69
2023/09/25 11:20:30;;;;;;;6.57;2.40;;;20.50;95.70;;;;;;5050932;28;20509;-69
2023/09/25 11:23:15;;;;;;;4.43;2.20;;;20.50;95.60;;;;;;5051596;28;20147;-69
2023/09/25 11:25:47;;;;;;;6.38;2.05;;;20.50;95.30;;;;;;5051138;28;20025;-71
2023/09/25 11:28:18;;;;;;;5.22;2.17;;;20.60;95.70;;;;;;5050214;28;20055;-71
2023/09/25 11:30:46;;;;;;;8.23;2.83;;;20.60;95.50;;;;;;5051289;28;20045;-71
2023/09/25 11:33:18;;;;;;;5.10;2.50;;;20.60;95.40;;;;;;5050223;28;20479;-71
2023/09/25 11:35:44;;;;;;;4.72;2.30;;;20.70;95.40;;;;;;5049891;28;20498;-71
2023/09/25 11:38:18;;;;;;;3.67;1.80;;;20.70;95.50;;;;;;5050098;28;20018;-71
2023/09/25 11:40:45;;;;;;;4.30;2.00;;;20.80;95.40;;;;;;5051200;28;20029;-71
2023/09/25 11:43:12;;;;;;;4.78;2.22;;;20.90;95.70;;;;;;5051343;28;20505;-71
2023/09/25 11:45:39;;;;;;;5.05;2.38;;;21.00;95.30;;;;;;5050907;28;20483;-71
2023/09/25 11:48:05;;;;;;;3.80;2.20;;;21.00;95.40;;;;;;5051185;28;20032;-71
2023/09/25 11:50:32;;;;;;;5.13;2.10;;;21.10;95.10;;;;;;5050594;28;20033;-71
2023/09/25 11:52:58;;;;;;;6.47;2.28;;;21.10;95.50;;;;;;5053189;28;20021;-71
2023/09/25 11:55:24;;;;;;;3.60;2.10;;;21.30;95.80;;;;;;5054371;28;20021;-71
2023/09/25 11:57:49;;;;;;;2.70;1.85;;;21.40;95.60;;;;;;5055145;28;20095;-71
2023/09/25 12:00:18;;;;;;;5.00;1.98;;;21.40;95.40;;;;;;5054307;28;20119;-71
2023/09/25 12:02:48;;;;;;;6.15;2.17;;;21.50;95.10;;;;;;5055393;28;20375;-69
2023/09/25 12:05:14;;;;;;;3.22;1.85;;;21.50;94.70;;;;;;5052931;28;20107;-70
2023/09/25 12:07:41;;;;;;;5.57;2.33;;;21.50;95.10;;;;;;5054937;28;20403;-71
2023/09/25 12:10:08;;;;;;;4.53;1.88;;;21.50;94.90;;;;;;5052747;28;20052;-69
2023/09/25 12:12:37;;;;;;;3.15;1.88;;;21.50;94.60;;;;;;5054811;28;20021;-68
2023/09/25 12:15:04;;;;;;;4.03;2.30;;;21.50;94.90;;;;;;5052769;28;20013;-71
2023/09/25 12:17:30;;;;;;;4.72;1.90;;;21.60;94.90;;;;;;5054539;28;20025;-71
2023/09/25 12:19:57;;;;;;;5.60;2.58;;;21.60;95.20;;;;;;5053817;28;20475;-71
2023/09/25 12:22:24;;;;;;;4.47;2.65;;;21.70;95.40;;;;;;5054498;28;20067;-70
2023/09/25 12:24:50;;;;;;;7.05;2.50;;;21.70;95.10;;;;;;5053748;28;20013;-71
2023/09/25 12:27:16;;;;;;;7.70;2.55;;;21.70;95.00;;;;;;5054422;28;20544;-70
2023/09/25 12:29:43;;;;;;;4.22;2.20;;;21.70;95.00;;;;;;5053537;28;20032;-71
2023/09/25 12:32:09;;;;;;;5.90;2.42;;;21.70;95.40;;;;;;5054429;28;20021;-70
2023/09/25 12:34:35;;;;;;;5.22;2.63;;;21.80;95.40;;;;;;5053586;28;20021;-71
2023/09/25 12:37:00;;;;;;;5.07;2.38;;;21.80;95.00;;;;;;5054483;28;20013;-70
2023/09/25 12:39:26;;;;;;;4.95;2.10;;;21.90;95.00;;;;;;5053702;28;20419;-70
2023/09/25 12:41:52;;;;;;;3.40;1.90;;;21.90;94.70;;;;;;5054206;28;20483;-70
2023/09/25 12:44:18;;;;;;;2.95;1.98;;;22.00;95.10;;;;;;5053534;28;20056;-70
2023/09/25 12:46:45;;;;;;;6.38;2.40;;;22.00;94.20;;;;;;5053964;28;20530;-70
2023/09/25 12:49:10;;;;;;;4.47;2.10;;;22.00;94.50;;;;;;5052950;28;20120;-71